createdAt,value
2023-05-01T00:01:06.059Z,15.50
2023-05-01T00:03:34.044Z,15.44
2023-05-01T00:06:04.319Z,15.43
2023-05-01T00:08:32.405Z,15.41
2023-05-01T00:11:09.814Z,15.35
2023-05-01T00:13:37.515Z,15.35
2023-05-01T00:16:10.032Z,15.37
2023-05-01T00:18:37.492Z,15.26
2023-05-01T00:21:05.336Z,15.31
2023-05-01T00:23:32.729Z,15.21
2023-05-01T00:26:00.153Z,15.13
2023-05-01T00:28:27.836Z,15.17
2023-05-01T00:30:55.438Z,15.13
2023-05-01T00:33:22.812Z,14.97
2023-05-01T00:35:51.434Z,15.02
2023-05-01T00:38:18.954Z,14.98
2023-05-01T00:40:47.230Z,14.87
2023-05-01T00:43:14.971Z,14.80
2023-05-01T00:45:45.334Z,14.81
2023-05-01T00:48:13.068Z,14.76
2023-05-01T00:50:41.107Z,14.78
2023-05-01T00:53:08.877Z,14.66
2023-05-01T00:55:37.195Z,14.62
2023-05-01T00:58:05.094Z,14.62
2023-05-01T01:00:32.665Z,14.68
2023-05-01T01:03:00.151Z,14.53
2023-05-01T01:05:30.746Z,14.49
2023-05-01T01:08:30.706Z,14.38
2023-05-01T01:11:19.798Z,14.34
2023-05-01T01:13:58.377Z,14.19
2023-05-01T01:16:39.043Z,14.10
2023-05-01T01:19:54.501Z,14.14
2023-05-01T01:22:24.218Z,13.98
2023-05-01T01:25:19.598Z,13.94
2023-05-01T01:28:05.765Z,13.89
2023-05-01T01:30:48.345Z,13.83
2023-05-01T01:33:49.572Z,13.88
2023-05-01T01:36:41.189Z,13.83
2023-05-01T01:39:21.038Z,13.87
2023-05-01T01:41:51.469Z,13.78
2023-05-01T01:44:27.985Z,13.73
2023-05-01T01:46:55.529Z,13.70
2023-05-01T01:49:26.682Z,13.75
2023-05-01T01:51:55.227Z,13.76
2023-05-01T01:54:30.804Z,13.76
2023-05-01T01:56:59.878Z,13.81
2023-05-01T01:59:31.060Z,13.75
2023-05-01T02:01:59.068Z,13.68
2023-05-01T02:04:28.272Z,13.73
2023-05-01T02:06:58.289Z,13.79
2023-05-01T02:09:27.047Z,13.81
2023-05-01T02:11:55.950Z,13.77
2023-05-01T02:14:26.185Z,13.93
2023-05-01T02:16:54.041Z,13.87
2023-05-01T02:19:22.430Z,13.86
2023-05-01T02:21:50.700Z,13.99
2023-05-01T02:24:19.800Z,13.94
2023-05-01T02:26:50.350Z,13.95
2023-05-01T02:29:18.202Z,14.02
2023-05-01T02:31:45.601Z,14.07
2023-05-01T02:34:13.117Z,14.05
2023-05-01T02:36:40.920Z,14.16
2023-05-01T02:39:08.492Z,14.11
2023-05-01T02:41:37.162Z,14.26
2023-05-01T02:44:06.535Z,14.15
2023-05-01T02:46:36.918Z,14.22
2023-05-01T02:49:05.964Z,14.28
2023-05-01T02:51:35.069Z,14.08
2023-05-01T02:54:03.306Z,14.05
2023-05-01T02:56:31.466Z,14.21
2023-05-01T02:58:58.864Z,14.20
2023-05-01T03:01:27.936Z,14.14
2023-05-01T03:03:55.824Z,14.16
2023-05-01T03:06:23.368Z,14.19
2023-05-01T03:08:51.512Z,14.19
2023-05-01T03:11:19.157Z,14.24
2023-05-01T03:13:47.625Z,14.47
2023-05-01T03:16:15.141Z,14.30
2023-05-01T03:18:42.863Z,14.37
2023-05-01T03:21:10.265Z,14.42
2023-05-01T03:23:38.371Z,14.38
2023-05-01T03:26:07.725Z,14.38
2023-05-01T03:28:35.167Z,14.53
2023-05-01T03:31:02.751Z,14.47
2023-05-01T03:33:31.696Z,14.47
2023-05-01T03:36:03.762Z,14.51
2023-05-01T03:38:32.155Z,14.44
2023-05-01T03:41:02.669Z,14.58
2023-05-01T03:43:32.255Z,14.61
2023-05-01T03:46:00.960Z,14.64
2023-05-01T03:48:28.760Z,14.62
2023-05-01T03:50:58.310Z,14.61
2023-05-01T03:53:26.106Z,14.65
2023-05-01T03:55:53.631Z,14.68
2023-05-01T03:58:22.249Z,14.62
2023-05-01T04:00:51.078Z,14.73
2023-05-01T04:03:19.166Z,14.85
2023-05-01T04:05:47.374Z,14.82
2023-05-01T04:08:14.897Z,15.00
2023-05-01T04:10:42.571Z,15.02
2023-05-01T04:13:10.825Z,15.16
2023-05-01T04:15:39.100Z,15.31
2023-05-01T04:18:06.884Z,15.46
2023-05-01T04:20:35.755Z,15.51
2023-05-01T04:23:03.316Z,15.53
2023-05-01T04:25:31.128Z,15.50
2023-05-01T04:27:59.866Z,15.69
2023-05-01T04:30:27.347Z,15.70
2023-05-01T04:32:55.244Z,15.54
2023-05-01T04:35:23.591Z,15.69
2023-05-01T04:37:51.713Z,15.71
2023-05-01T04:40:19.468Z,15.87
2023-05-01T04:42:47.354Z,15.90
2023-05-01T04:45:14.967Z,15.95
2023-05-01T04:47:42.765Z,16.04
2023-05-01T04:50:10.814Z,16.00
2023-05-01T04:52:38.610Z,15.98
2023-05-01T04:55:07.050Z,16.10
2023-05-01T04:57:35.369Z,16.14
2023-05-01T05:00:05.625Z,16.26
2023-05-01T05:02:34.016Z,16.26
2023-05-01T05:05:01.670Z,16.34
2023-05-01T05:07:29.178Z,16.28
2023-05-01T05:09:59.610Z,16.13
2023-05-01T05:12:27.132Z,16.24
2023-05-01T05:14:54.640Z,16.34
2023-05-01T05:17:22.417Z,16.43
2023-05-01T05:19:49.943Z,16.41
2023-05-01T05:22:17.485Z,16.50
2023-05-01T05:24:47.637Z,16.55
2023-05-01T05:27:15.905Z,16.55
2023-05-01T05:29:43.363Z,16.35
2023-05-01T05:32:11.578Z,16.57
2023-05-01T05:34:39.321Z,16.43
2023-05-01T05:37:07.098Z,16.49
2023-05-01T05:39:37.963Z,16.39
2023-05-01T05:42:06.049Z,16.37
2023-05-01T05:44:35.936Z,16.52
2023-05-01T05:47:03.960Z,16.60
2023-05-01T05:49:33.933Z,16.74
2023-05-01T05:52:01.496Z,16.99
2023-05-01T05:54:30.000Z,16.90
2023-05-01T05:56:57.530Z,17.20
2023-05-01T05:59:25.415Z,17.16
2023-05-01T06:01:53.190Z,17.00
2023-05-01T06:04:20.929Z,17.28
2023-05-01T06:06:49.108Z,17.35
2023-05-01T06:09:19.167Z,17.29
2023-05-01T06:11:47.731Z,17.31
2023-05-01T06:14:16.707Z,17.53
2023-05-01T06:16:44.530Z,17.53
2023-05-01T06:19:12.878Z,17.53
2023-05-01T06:21:40.664Z,17.55
2023-05-01T06:24:09.892Z,17.88
2023-05-01T06:26:37.781Z,17.93
2023-05-01T06:29:05.302Z,18.02
2023-05-01T06:31:32.976Z,18.19
2023-05-01T06:34:00.750Z,18.27
2023-05-01T06:36:28.567Z,18.48
2023-05-01T06:38:56.684Z,18.46
2023-05-01T06:41:25.808Z,18.46
2023-05-01T06:43:53.352Z,18.56
2023-05-01T06:46:20.846Z,18.76
2023-05-01T06:48:48.884Z,19.09
2023-05-01T06:51:16.451Z,19.04
2023-05-01T06:53:43.866Z,19.01
2023-05-01T06:56:11.555Z,18.83
2023-05-01T06:58:38.983Z,18.92
2023-05-01T07:01:07.416Z,19.01
2023-05-01T07:03:35.239Z,19.41
2023-05-01T07:06:02.790Z,19.46
2023-05-01T07:08:30.805Z,19.48
2023-05-01T07:10:58.670Z,19.40
2023-05-01T07:13:27.417Z,19.52
2023-05-01T07:15:55.224Z,19.54
2023-05-01T07:18:23.420Z,19.49
2023-05-01T07:20:50.897Z,19.59
2023-05-01T07:23:18.374Z,19.61
2023-05-01T07:25:46.376Z,19.50
2023-05-01T07:28:13.825Z,19.64
2023-05-01T07:30:41.768Z,19.77
2023-05-01T07:33:09.689Z,19.89
2023-05-01T07:35:37.666Z,19.82
2023-05-01T07:38:05.165Z,19.72
2023-05-01T07:40:34.875Z,19.94
2023-05-01T07:43:02.637Z,20.16
2023-05-01T07:45:30.096Z,20.25
2023-05-01T07:47:57.897Z,20.04
2023-05-01T07:50:26.036Z,20.27
2023-05-01T07:52:53.798Z,20.23
2023-05-01T07:55:22.748Z,20.25
2023-05-01T07:57:50.653Z,20.29
2023-05-01T08:00:18.773Z,20.18
2023-05-01T08:02:46.591Z,20.20
2023-05-01T08:05:14.339Z,20.30
2023-05-01T08:07:41.708Z,20.55
2023-05-01T08:10:09.666Z,20.76
2023-05-01T08:12:37.101Z,20.74
2023-05-01T08:15:05.269Z,21.02
2023-05-01T08:17:33.020Z,21.17
2023-05-01T08:20:04.430Z,21.07
2023-05-01T08:22:32.108Z,20.97
2023-05-01T08:24:59.775Z,20.74
2023-05-01T08:27:27.399Z,20.76
2023-05-01T08:29:55.082Z,20.82
2023-05-01T08:32:22.929Z,21.05
2023-05-01T08:34:50.317Z,20.99
2023-05-01T08:37:19.143Z,20.91
2023-05-01T08:39:46.801Z,21.05
2023-05-01T08:42:14.316Z,20.95
2023-05-01T08:44:43.013Z,21.11
2023-05-01T08:47:13.336Z,21.23
2023-05-01T08:49:42.026Z,21.43
2023-05-01T08:52:12.031Z,21.53
2023-05-01T08:54:42.806Z,21.74
2023-05-01T08:57:11.476Z,21.50
2023-05-01T08:59:39.978Z,21.61
2023-05-01T09:02:09.494Z,21.63
2023-05-01T09:04:40.952Z,21.79
2023-05-01T09:07:10.090Z,21.71
2023-05-01T09:09:37.573Z,21.73
2023-05-01T09:12:25.926Z,21.59
2023-05-01T09:14:54.924Z,21.67
2023-05-01T09:17:23.747Z,21.56
2023-05-01T09:19:51.434Z,21.75
2023-05-01T09:22:19.545Z,21.85
2023-05-01T09:24:47.087Z,21.94
2023-05-01T09:27:15.116Z,22.07
2023-05-01T09:29:44.493Z,22.08
2023-05-01T09:32:21.223Z,22.12
2023-05-01T09:34:49.983Z,21.88
2023-05-01T09:37:31.649Z,22.03
2023-05-01T09:40:13.565Z,22.32
2023-05-01T09:42:49.338Z,22.16
2023-05-01T09:45:17.441Z,22.33
2023-05-01T09:47:48.026Z,22.27
2023-05-01T09:50:32.387Z,22.18
2023-05-01T09:53:05.129Z,22.14
2023-05-01T09:55:33.559Z,22.30
2023-05-01T09:58:02.582Z,22.57
2023-05-01T10:00:30.313Z,22.60
2023-05-01T10:02:58.209Z,22.67
2023-05-01T10:05:26.294Z,22.54
2023-05-01T10:07:58.226Z,22.47
2023-05-01T10:10:25.895Z,22.59
2023-05-01T10:12:53.253Z,22.63
2023-05-01T10:15:26.163Z,22.52
2023-05-01T10:17:55.633Z,22.71
2023-05-01T10:20:23.229Z,22.75
2023-05-01T10:22:50.713Z,22.79
2023-05-01T10:25:20.079Z,22.80
2023-05-01T10:27:48.495Z,22.89
2023-05-01T10:30:17.347Z,22.69
2023-05-01T10:32:45.962Z,22.64
2023-05-01T10:35:16.270Z,22.67
2023-05-01T10:37:48.833Z,22.55
2023-05-01T10:40:43.919Z,22.58
2023-05-01T10:43:25.759Z,22.66
2023-05-01T10:46:12.778Z,22.98
2023-05-01T10:48:43.755Z,23.05
2023-05-01T10:51:11.495Z,22.88
2023-05-01T10:53:40.726Z,22.89
2023-05-01T10:56:26.994Z,23.02
2023-05-01T10:59:04.716Z,23.27
2023-05-01T11:01:39.743Z,23.36
2023-05-01T11:04:22.856Z,23.52
2023-05-01T11:07:05.630Z,23.83
2023-05-01T11:09:54.674Z,23.73
2023-05-01T11:12:46.999Z,23.79
2023-05-01T11:15:33.982Z,23.72
2023-05-01T11:18:02.450Z,23.67
2023-05-01T11:20:36.461Z,23.81
2023-05-01T11:23:03.913Z,23.83
2023-05-01T11:25:31.886Z,23.78
2023-05-01T11:28:01.742Z,23.93
2023-05-01T11:30:42.013Z,24.06
2023-05-01T11:33:10.881Z,24.06
2023-05-01T11:35:39.274Z,24.17
2023-05-01T11:38:06.753Z,23.97
2023-05-01T11:40:35.039Z,23.84
2023-05-01T11:43:04.483Z,23.63
2023-05-01T11:45:33.094Z,23.72
2023-05-01T11:48:04.523Z,23.91
2023-05-01T11:50:37.180Z,24.01
2023-05-01T11:53:11.855Z,23.93
2023-05-01T11:55:40.258Z,23.96
2023-05-01T11:58:08.136Z,23.99
2023-05-01T12:00:38.027Z,24.09
2023-05-01T12:03:10.316Z,24.27
2023-05-01T12:05:39.877Z,24.20
2023-05-01T12:08:20.884Z,24.41
2023-05-01T12:10:52.283Z,24.47
2023-05-01T12:13:20.655Z,24.48
2023-05-01T12:15:52.480Z,24.38
2023-05-01T12:18:23.638Z,24.44
2023-05-01T12:20:52.946Z,24.59
2023-05-01T12:23:34.745Z,24.53
2023-05-01T12:26:05.247Z,24.38
2023-05-01T12:28:32.953Z,24.26
2023-05-01T12:31:05.489Z,24.17
2023-05-01T12:33:33.381Z,24.30
2023-05-01T12:36:11.859Z,24.31
2023-05-01T12:38:39.611Z,24.31
2023-05-01T12:41:09.372Z,24.16
2023-05-01T12:43:38.024Z,24.11
2023-05-01T12:46:06.102Z,24.10
2023-05-01T12:48:34.357Z,24.07
2023-05-01T12:51:04.982Z,24.14
2023-05-01T12:53:33.494Z,24.21
2023-05-01T12:56:03.180Z,24.31
2023-05-01T12:58:37.974Z,24.20
2023-05-01T13:01:06.739Z,24.43
2023-05-01T13:03:35.317Z,24.12
2023-05-01T13:06:05.856Z,24.13
2023-05-01T13:08:36.796Z,24.31
2023-05-01T13:11:17.451Z,24.32
2023-05-01T13:13:45.949Z,24.30
2023-05-01T13:16:16.994Z,24.28
2023-05-01T13:18:44.672Z,24.17
2023-05-01T13:21:14.686Z,24.43
2023-05-01T13:23:43.966Z,24.23
2023-05-01T13:26:12.189Z,24.18
2023-05-01T13:28:46.683Z,24.27
2023-05-01T13:31:15.089Z,24.36
2023-05-01T13:33:45.642Z,24.41
2023-05-01T13:36:25.167Z,24.25
2023-05-01T13:38:57.007Z,24.31
2023-05-01T13:41:26.161Z,24.31
2023-05-01T13:43:55.934Z,24.33
2023-05-01T13:46:25.804Z,24.49
2023-05-01T13:48:53.588Z,24.43
2023-05-01T13:51:26.417Z,24.53
2023-05-01T13:53:59.377Z,24.52
2023-05-01T13:56:26.864Z,24.33
2023-05-01T13:58:54.564Z,24.32
2023-05-01T14:01:22.699Z,24.24
2023-05-01T14:03:50.777Z,24.36
2023-05-01T14:06:21.370Z,24.18
2023-05-01T14:08:49.172Z,24.26
2023-05-01T14:11:18.201Z,24.28
2023-05-01T14:13:51.069Z,24.34
2023-05-01T14:16:27.187Z,24.25
2023-05-01T14:18:57.154Z,24.39
2023-05-01T14:21:27.932Z,24.17
2023-05-01T14:23:57.202Z,24.27
2023-05-01T14:26:25.052Z,24.18
2023-05-01T14:28:52.781Z,24.18
2023-05-01T14:31:27.655Z,24.18
2023-05-01T14:33:57.869Z,24.08
2023-05-01T14:36:25.578Z,24.19
2023-05-01T14:38:56.307Z,24.24
2023-05-01T14:41:24.188Z,24.04
2023-05-01T14:43:54.256Z,24.09
2023-05-01T14:46:32.736Z,23.99
2023-05-01T14:49:03.636Z,24.14
2023-05-01T14:51:32.304Z,24.10
2023-05-01T14:54:00.273Z,23.98
2023-05-01T14:56:27.802Z,24.00
2023-05-01T14:58:55.407Z,23.93
2023-05-01T15:01:23.324Z,23.90
2023-05-01T15:03:50.922Z,23.86
2023-05-01T15:06:18.459Z,24.20
2023-05-01T15:08:46.885Z,23.93
2023-05-01T15:11:14.483Z,24.05
2023-05-01T15:13:44.160Z,23.96
2023-05-01T15:16:12.166Z,23.64
2023-05-01T15:18:39.910Z,23.69
2023-05-01T15:21:07.412Z,23.64
2023-05-01T15:23:36.909Z,23.61
2023-05-01T15:26:04.297Z,23.71
2023-05-01T15:28:32.543Z,23.67
2023-05-01T15:31:00.215Z,23.58
2023-05-01T15:33:27.783Z,23.63
2023-05-01T15:35:55.490Z,23.61
2023-05-01T15:38:24.114Z,23.52
2023-05-01T15:40:52.036Z,23.48
2023-05-01T15:43:19.480Z,23.69
2023-05-01T15:45:47.409Z,23.48
2023-05-01T15:48:14.875Z,23.34
2023-05-01T15:50:42.549Z,23.39
2023-05-01T15:53:10.353Z,23.27
2023-05-01T15:55:37.774Z,23.34
2023-05-01T15:58:05.221Z,23.27
2023-05-01T16:00:38.181Z,23.27
2023-05-01T16:03:07.733Z,23.22
2023-05-01T16:05:36.837Z,23.15
2023-05-01T16:08:05.925Z,23.10
2023-05-01T16:10:37.329Z,22.99
2023-05-01T16:13:08.771Z,23.06
2023-05-01T16:15:37.058Z,23.15
2023-05-01T16:18:05.058Z,23.14
2023-05-01T16:20:41.874Z,23.00
2023-05-01T16:23:09.667Z,22.98
2023-05-01T16:25:42.354Z,23.04
2023-05-01T16:28:10.259Z,23.19
2023-05-01T16:30:41.891Z,23.07
2023-05-01T16:33:18.260Z,23.04
2023-05-01T16:35:48.313Z,22.88
2023-05-01T16:38:17.082Z,23.04
2023-05-01T16:40:46.012Z,22.98
2023-05-01T16:43:13.665Z,22.94
2023-05-01T16:45:41.916Z,22.92
2023-05-01T16:48:09.478Z,22.98
2023-05-01T16:50:40.094Z,22.82
2023-05-01T16:53:07.987Z,22.83
2023-05-01T16:55:35.606Z,22.81
2023-05-01T16:58:03.113Z,22.81
2023-05-01T17:00:31.329Z,22.79
2023-05-01T17:02:59.128Z,22.69
2023-05-01T17:05:26.952Z,22.68
2023-05-01T17:07:54.604Z,22.65
2023-05-01T17:10:22.021Z,22.66
2023-05-01T17:12:49.517Z,22.55
2023-05-01T17:15:18.183Z,22.56
2023-05-01T17:17:45.633Z,22.43
2023-05-01T17:20:14.006Z,22.46
2023-05-01T17:22:41.893Z,22.53
2023-05-01T17:25:09.458Z,22.41
2023-05-01T17:27:37.703Z,22.45
2023-05-01T17:30:06.059Z,22.44
2023-05-01T17:32:36.996Z,22.41
2023-05-01T17:35:06.093Z,22.32
2023-05-01T17:37:33.481Z,22.36
2023-05-01T17:40:01.449Z,22.24
2023-05-01T17:42:29.513Z,22.25
2023-05-01T17:44:56.911Z,22.20
2023-05-01T17:47:26.111Z,22.16
2023-05-01T17:49:54.300Z,22.20
2023-05-01T17:52:21.791Z,22.13
2023-05-01T17:54:49.318Z,22.09
2023-05-01T17:57:17.149Z,22.01
2023-05-01T17:59:44.805Z,21.87
2023-05-01T18:02:12.517Z,21.98
2023-05-01T18:04:40.401Z,22.07
2023-05-01T18:07:07.848Z,22.01
2023-05-01T18:09:35.419Z,22.00
2023-05-01T18:12:03.241Z,21.92
2023-05-01T18:14:30.711Z,21.82
2023-05-01T18:16:58.300Z,21.79
2023-05-01T18:19:26.103Z,21.68
2023-05-01T18:21:53.515Z,21.57
2023-05-01T18:24:21.101Z,21.51
2023-05-01T18:26:48.896Z,21.47
2023-05-01T18:29:16.477Z,21.45
2023-05-01T18:31:43.974Z,21.32
2023-05-01T18:34:12.626Z,21.20
2023-05-01T18:36:43.661Z,21.17
2023-05-01T18:39:13.390Z,21.13
2023-05-01T18:41:40.776Z,21.01
2023-05-01T18:44:08.202Z,20.83
2023-05-01T18:46:36.876Z,20.78
2023-05-01T18:49:04.526Z,20.69
2023-05-01T18:51:32.316Z,20.61
2023-05-01T18:54:02.062Z,20.54
2023-05-01T18:56:31.077Z,20.30
2023-05-01T18:58:58.583Z,20.25
2023-05-01T19:01:26.410Z,20.27
2023-05-01T19:03:58.873Z,20.18
2023-05-01T19:06:26.974Z,19.98
2023-05-01T19:08:54.630Z,19.86
2023-05-01T19:11:22.300Z,19.77
2023-05-01T19:13:52.668Z,19.68
2023-05-01T19:16:22.720Z,19.66
2023-05-01T19:18:50.605Z,19.65
2023-05-01T19:21:18.176Z,19.49
2023-05-01T19:23:46.580Z,19.48
2023-05-01T19:26:14.701Z,19.51
2023-05-01T19:28:42.465Z,19.45
2023-05-01T19:31:12.342Z,19.42
2023-05-01T19:33:41.203Z,19.26
2023-05-01T19:36:08.714Z,19.23
2023-05-01T19:38:36.219Z,19.17
2023-05-01T19:41:12.049Z,18.97
2023-05-01T19:43:45.030Z,19.01
2023-05-01T19:46:12.809Z,18.88
2023-05-01T19:48:40.504Z,18.79
2023-05-01T19:51:07.925Z,18.75
2023-05-01T19:53:36.214Z,18.76
2023-05-01T19:56:03.735Z,18.64
2023-05-01T19:58:31.214Z,18.63
2023-05-01T20:01:02.218Z,18.42
2023-05-01T20:03:30.032Z,18.49
2023-05-01T20:05:57.524Z,18.44
2023-05-01T20:08:25.170Z,18.33
2023-05-01T20:10:52.873Z,18.18
2023-05-01T20:13:20.273Z,18.13
2023-05-01T20:15:47.689Z,18.14
2023-05-01T20:18:16.763Z,18.13
2023-05-01T20:20:44.199Z,17.91
2023-05-01T20:23:15.915Z,17.86
2023-05-01T20:25:43.899Z,17.81
2023-05-01T20:28:12.975Z,17.87
2023-05-01T20:30:41.213Z,17.78
2023-05-01T20:33:09.299Z,17.78
2023-05-01T20:35:37.172Z,17.66
2023-05-01T20:38:05.069Z,17.65
2023-05-01T20:40:33.495Z,17.71
2023-05-01T20:43:00.914Z,17.64
2023-05-01T20:45:31.888Z,17.54
2023-05-01T20:48:00.157Z,17.48
2023-05-01T20:50:28.129Z,17.41
2023-05-01T20:52:56.361Z,17.36
2023-05-01T20:55:24.270Z,17.33
2023-05-01T20:57:51.706Z,17.16
2023-05-01T21:00:19.142Z,17.21
2023-05-01T21:02:47.079Z,17.16
2023-05-01T21:05:16.244Z,17.08
2023-05-01T21:07:43.730Z,17.16
2023-05-01T21:10:12.081Z,17.07
2023-05-01T21:12:40.025Z,16.97
2023-05-01T21:15:08.062Z,16.95
2023-05-01T21:17:36.394Z,16.93
2023-05-01T21:20:16.732Z,16.93
2023-05-01T21:22:45.685Z,16.92
2023-05-01T21:25:15.443Z,16.95
2023-05-01T21:27:42.845Z,16.79
2023-05-01T21:30:15.342Z,16.85
2023-05-01T21:32:42.982Z,16.80
2023-05-01T21:35:11.533Z,16.78
2023-05-01T21:37:48.718Z,16.77
2023-05-01T21:40:21.345Z,16.64
2023-05-01T21:42:48.855Z,16.65
2023-05-01T21:45:18.291Z,16.62
2023-05-01T21:47:47.785Z,16.58
2023-05-01T21:50:17.746Z,16.56
2023-05-01T21:52:46.620Z,16.56
2023-05-01T21:55:20.428Z,16.54
2023-05-01T21:57:49.996Z,16.43
2023-05-01T22:00:18.951Z,16.37
2023-05-01T22:02:48.660Z,16.26
2023-05-01T22:05:18.776Z,16.25
2023-05-01T22:07:47.089Z,16.26
2023-05-01T22:10:17.037Z,16.26
2023-05-01T22:12:45.334Z,16.18
2023-05-01T22:15:15.529Z,16.18
2023-05-01T22:17:44.426Z,16.10
2023-05-01T22:20:12.245Z,16.14
2023-05-01T22:22:41.173Z,16.09
2023-05-01T22:25:09.870Z,16.08
2023-05-01T22:27:37.616Z,16.04
2023-05-01T22:30:05.746Z,16.02
2023-05-01T22:32:33.938Z,16.05
2023-05-01T22:35:01.681Z,15.95
2023-05-01T22:37:30.155Z,15.95
2023-05-01T22:39:58.346Z,15.96
2023-05-01T22:42:26.164Z,15.92
2023-05-01T22:44:53.569Z,15.90
2023-05-01T22:47:21.210Z,15.91
2023-05-01T22:49:48.666Z,15.90
2023-05-01T22:52:16.276Z,15.92
2023-05-01T22:54:43.945Z,15.84
2023-05-01T22:57:11.440Z,15.73
2023-05-01T22:59:40.474Z,15.75
2023-05-01T23:02:08.611Z,15.69
2023-05-01T23:04:36.413Z,15.53
2023-05-01T23:07:03.891Z,15.62
2023-05-01T23:09:32.378Z,15.56
2023-05-01T23:11:59.953Z,15.55
2023-05-01T23:14:27.630Z,15.48
2023-05-01T23:16:55.291Z,15.43
2023-05-01T23:19:24.576Z,15.48
2023-05-01T23:22:06.932Z,15.33
2023-05-01T23:24:43.263Z,15.39
2023-05-01T23:27:12.305Z,15.41
2023-05-01T23:29:40.589Z,15.39
2023-05-01T23:32:26.791Z,15.21
2023-05-01T23:34:55.560Z,15.32
2023-05-01T23:37:23.281Z,15.26
2023-05-01T23:39:52.487Z,15.14
2023-05-01T23:42:21.338Z,15.11
2023-05-01T23:44:48.887Z,15.16
2023-05-01T23:47:16.449Z,15.07
2023-05-01T23:49:44.232Z,15.16
2023-05-01T23:52:12.021Z,15.15
2023-05-01T23:54:39.412Z,15.17
2023-05-01T23:57:07.086Z,15.23
2023-05-01T23:59:35.394Z,15.20
